Time,TemperatureF,DewpointF,PressureIn,WindDirection,WindDirectionDegrees,WindSpeedMPH,WindSpeedGustMPH,Humidity,HourlyPrecipIn,Conditions,Clouds,dailyrainin,SoftwareType,DateUTC
2013-03-04 00:01:00,49.0,42.0,30.16,NW,323,1.0,5.0,77,0.00,,,0.00,,2013-03-04 05:01:00,
2013-03-04 00:11:00,49.0,42.0,30.16,NW,323,1.0,5.0,77,0.00,,,0.00,,2013-03-04 05:11:00,
2013-03-04 00:22:00,49.0,42.0,30.16,NW,311,3.0,6.0,78,0.00,,,0.00,,2013-03-04 05:22:00,
2013-03-04 00:32:00,48.0,42.0,30.17,NW,312,2.0,6.0,79,0.00,,,0.00,,2013-03-04 05:32:00,
2013-03-04 00:42:00,48.0,42.0,30.17,NW,312,2.0,6.0,79,0.00,,,0.00,,2013-03-04 05:42:00,
2013-03-04 00:52:00,48.0,40.0,30.17,WNW,303,4.0,14.0,75,0.00,,,0.00,,2013-03-04 05:52:00,
2013-03-04 01:02:00,47.0,39.0,30.16,NNW,329,3.0,9.0,75,0.00,,,0.00,,2013-03-04 06:02:00,
2013-03-04 01:11:00,47.0,39.0,30.16,NNW,329,3.0,9.0,75,0.00,,,0.00,,2013-03-04 06:11:00,
2013-03-04 01:22:00,47.0,39.0,30.16,NNW,329,3.0,9.0,75,0.00,,,0.00,,2013-03-04 06:22:00,
2013-03-04 01:32:00,46.0,38.0,30.16,NW,316,5.0,14.0,73,0.00,,,0.00,,2013-03-04 06:32:00,
2013-03-04 01:42:00,46.0,38.0,30.16,NW,316,5.0,14.0,73,0.00,,,0.00,,2013-03-04 06:42:00,
2013-03-04 01:52:00,46.0,38.0,30.15,NNW,331,4.0,10.0,73,0.00,,,0.00,,2013-03-04 06:52:00,
2013-03-04 02:02:00,45.0,37.0,30.16,NNW,329,4.0,10.0,74,0.00,,,0.00,,2013-03-04 07:02:00,
2013-03-04 02:11:00,45.0,37.0,30.16,NNW,329,4.0,10.0,74,0.00,,,0.00,,2013-03-04 07:11:00,
2013-03-04 02:22:00,45.0,37.0,30.15,WNW,302,7.0,16.0,74,0.00,,,0.00,,2013-03-04 07:22:00,
2013-03-04 02:32:00,45.0,38.0,30.15,NW,317,2.0,13.0,75,0.00,,,0.00,,2013-03-04 07:32:00,
2013-03-04 02:42:00,45.0,38.0,30.15,NW,317,2.0,13.0,75,0.00,,,0.00,,2013-03-04 07:42:00,
2013-03-04 02:52:00,45.0,38.0,30.15,NNW,333,4.0,12.0,75,0.00,,,0.00,,2013-03-04 07:52:00,
2013-03-04 03:02:00,44.0,37.0,30.14,NW,309,3.0,8.0,75,0.00,,,0.00,,2013-03-04 08:02:00,
2013-03-04 03:12:00,44.0,37.0,30.14,NW,309,3.0,8.0,75,0.00,,,0.00,,2013-03-04 08:12:00,
2013-03-04 03:22:00,44.0,37.0,30.14,North,360,3.0,10.0,76,0.00,,,0.00,,2013-03-04 08:22:00,
2013-03-04 03:32:00,44.0,37.0,30.14,North,355,2.0,9.0,76,0.00,,,0.00,,2013-03-04 08:32:00,
2013-03-04 03:42:00,44.0,37.0,30.14,North,355,2.0,9.0,76,0.00,,,0.00,,2013-03-04 08:42:00,
2013-03-04 03:52:00,44.0,37.0,30.14,North,9,2.0,7.0,76,0.00,,,0.00,,2013-03-04 08:52:00,
2013-03-04 04:02:00,43.0,36.0,30.14,NNW,347,1.0,7.0,76,0.00,,,0.00,,2013-03-04 09:02:00,
2013-03-04 04:11:00,43.0,36.0,30.14,NNW,347,1.0,7.0,76,0.00,,,0.00,,2013-03-04 09:11:00,
2013-03-04 04:22:00,43.0,36.0,30.14,NNW,329,2.0,5.0,77,0.00,,,0.00,,2013-03-04 09:22:00,
2013-03-04 04:32:00,43.0,37.0,30.14,NW,319,0.0,5.0,78,0.00,,,0.00,,2013-03-04 09:32:00,
2013-03-04 04:42:00,43.0,37.0,30.14,NW,319,0.0,5.0,78,0.00,,,0.00,,2013-03-04 09:42:00,
2013-03-04 04:52:00,43.0,37.0,30.15,North,355,0.0,3.0,78,0.00,,,0.00,,2013-03-04 09:52:00,
2013-03-04 05:01:00,42.0,36.0,30.16,North,355,0.0,3.0,79,0.00,,,0.00,,2013-03-04 10:01:00,
2013-03-04 05:12:00,42.0,36.0,30.16,North,355,0.0,3.0,79,0.00,,,0.00,,2013-03-04 10:12:00,
2013-03-04 05:22:00,42.0,36.0,30.17,NW,325,1.0,4.0,79,0.00,,,0.00,,2013-03-04 10:22:00,
2013-03-04 05:32:00,42.0,36.0,30.17,NW,325,0.0,4.0,80,0.00,,,0.00,,2013-03-04 10:32:00,
2013-03-04 05:42:00,42.0,36.0,30.17,NW,325,0.0,4.0,80,0.00,,,0.00,,2013-03-04 10:42:00,
2013-03-04 05:52:00,42.0,37.0,30.17,NW,325,0.0,3.0,82,0.00,,,0.00,,2013-03-04 10:52:00,
2013-03-04 06:02:00,42.0,37.0,30.18,NW,325,0.0,3.0,83,0.00,,,0.00,,2013-03-04 11:02:00,
2013-03-04 06:11:00,42.0,37.0,30.18,NW,325,0.0,3.0,83,0.00,,,0.00,,2013-03-04 11:11:00,
2013-03-04 06:22:00,42.0,38.0,30.18,NW,325,1.0,3.0,84,0.00,,,0.00,,2013-03-04 11:22:00,
2013-03-04 06:32:00,41.0,37.0,30.19,NW,323,1.0,4.0,84,0.00,,,0.00,,2013-03-04 11:32:00,
2013-03-04 06:42:00,41.0,37.0,30.19,NW,323,1.0,4.0,84,0.00,,,0.00,,2013-03-04 11:42:00,
2013-03-04 06:52:00,41.0,37.0,30.19,NW,319,1.0,5.0,85,0.00,,,0.00,,2013-03-04 11:52:00,
2013-03-04 07:02:00,41.0,37.0,30.20,NW,319,0.0,4.0,85,0.00,,,0.00,,2013-03-04 12:02:00,
2013-03-04 07:11:00,41.0,37.0,30.20,NW,319,0.0,4.0,85,0.00,,,0.00,,2013-03-04 12:11:00,
2013-03-04 07:22:00,41.0,37.0,30.20,NW,317,1.0,3.0,84,0.00,,,0.00,,2013-03-04 12:22:00,
2013-03-04 07:32:00,42.0,37.0,30.21,NW,315,1.0,5.0,83,0.00,,,0.00,,2013-03-04 12:32:00,
2013-03-04 07:42:00,42.0,37.0,30.21,NW,315,1.0,5.0,83,0.00,,,0.00,,2013-03-04 12:42:00,
2013-03-04 07:52:00,43.0,37.0,30.22,NW,317,2.0,4.0,80,0.00,,,0.00,,2013-03-04 12:52:00,
2013-03-04 08:02:00,46.0,37.0,30.22,North,5,2.0,7.0,70,0.00,,,0.00,,2013-03-04 13:02:00,
2013-03-04 08:11:00,46.0,37.0,30.22,North,5,2.0,7.0,70,0.00,,,0.00,,2013-03-04 13:11:00,
2013-03-04 08:22:00,48.0,36.0,30.22,North,5,1.0,7.0,63,0.00,,,0.00,,2013-03-04 13:22:00,
2013-03-04 08:32:00,49.0,35.0,30.22,NNE,17,4.0,9.0,59,0.00,,,0.00,,2013-03-04 13:32:00,
2013-03-04 08:42:00,49.0,35.0,30.22,NNE,17,4.0,9.0,59,0.00,,,0.00,,2013-03-04 13:42:00,
2013-03-04 08:52:00,50.0,36.0,30.23,NNW,341,4.0,9.0,58,0.00,,,0.00,,2013-03-04 13:52:00,
2013-03-04 09:01:00,51.0,35.0,30.23,NNW,338,4.0,9.0,54,0.00,,,0.00,,2013-03-04 14:01:00,
2013-03-04 09:12:00,51.0,35.0,30.23,NNW,338,4.0,9.0,54,0.00,,,0.00,,2013-03-04 14:12:00,
2013-03-04 09:22:00,52.0,36.0,30.23,NNW,341,4.0,9.0,54,0.00,,,0.00,,2013-03-04 14:22:00,
2013-03-04 09:32:00,54.0,37.0,30.24,NNE,15,4.0,13.0,53,0.00,,,0.00,,2013-03-04 14:32:00,
2013-03-04 09:42:00,54.0,37.0,30.24,NNE,15,4.0,13.0,53,0.00,,,0.00,,2013-03-04 14:42:00,
2013-03-04 09:52:00,55.0,37.0,30.23,North,355,4.0,9.0,51,0.00,,,0.00,,2013-03-04 14:52:00,
2013-03-04 10:02:00,55.0,39.0,30.23,NE,42,4.0,11.0,54,0.00,,,0.00,,2013-03-04 15:02:00,
2013-03-04 10:11:00,55.0,39.0,30.23,NE,42,4.0,11.0,54,0.00,,,0.00,,2013-03-04 15:11:00,
2013-03-04 10:22:00,56.0,38.0,30.23,NNW,327,4.0,10.0,51,0.00,,,0.00,,2013-03-04 15:22:00,
2013-03-04 10:32:00,57.0,38.0,30.23,WNW,292,4.0,13.0,49,0.00,,,0.00,,2013-03-04 15:32:00,
2013-03-04 10:42:00,57.0,38.0,30.23,WNW,292,4.0,13.0,49,0.00,,,0.00,,2013-03-04 15:42:00,
2013-03-04 10:52:00,58.0,39.0,30.22,NW,323,4.0,11.0,49,0.00,,,0.00,,2013-03-04 15:52:00,
2013-03-04 11:03:00,58.0,39.0,30.23,NNW,327,4.0,12.0,49,0.00,,,0.00,,2013-03-04 16:03:00,
2013-03-04 11:11:00,58.0,39.0,30.23,NNW,327,4.0,12.0,49,0.00,,,0.00,,2013-03-04 16:11:00,
2013-03-04 11:21:00,59.0,39.0,30.22,NW,312,4.0,9.0,48,0.00,,,0.00,,2013-03-04 16:21:00,
2013-03-04 11:32:00,60.0,39.0,30.22,NW,304,3.0,7.0,45,0.00,,,0.00,,2013-03-04 16:32:00,
2013-03-04 11:42:00,60.0,39.0,30.22,NW,304,3.0,7.0,45,0.00,,,0.00,,2013-03-04 16:42:00,
2013-03-04 11:52:00,60.0,36.0,30.22,NW,316,5.0,10.0,41,0.00,,,0.00,,2013-03-04 16:52:00,
2013-03-04 12:02:00,61.0,37.0,30.21,NW,311,2.0,12.0,41,0.00,,,0.00,,2013-03-04 17:02:00,
2013-03-04 12:11:00,61.0,37.0,30.21,NW,311,2.0,12.0,41,0.00,,,0.00,,2013-03-04 17:11:00,
2013-03-04 12:22:00,62.0,38.0,30.20,NNW,327,2.0,8.0,41,0.00,,,0.00,,2013-03-04 17:22:00,
2013-03-04 12:32:00,64.0,36.0,30.19,NE,36,4.0,8.0,35,0.00,,,0.00,,2013-03-04 17:32:00,
2013-03-04 12:42:00,64.0,36.0,30.19,NE,36,4.0,8.0,35,0.00,,,0.00,,2013-03-04 17:42:00,
2013-03-04 12:52:00,64.0,35.0,30.18,NE,47,4.0,8.0,34,0.00,,,0.00,,2013-03-04 17:52:00,
2013-03-04 13:02:00,64.0,35.0,30.18,NNE,27,5.0,9.0,34,0.00,,,0.00,,2013-03-04 18:02:00,
2013-03-04 13:11:00,64.0,35.0,30.18,NNE,27,5.0,9.0,34,0.00,,,0.00,,2013-03-04 18:11:00,
2013-03-04 13:22:00,65.0,37.0,30.17,NE,40,5.0,9.0,35,0.00,,,0.00,,2013-03-04 18:22:00,
2013-03-04 13:32:00,65.0,36.0,30.17,NNE,25,2.0,8.0,34,0.00,,,0.00,,2013-03-04 18:32:00,
2013-03-04 13:42:00,65.0,36.0,30.17,NNE,25,2.0,8.0,34,0.00,,,0.00,,2013-03-04 18:42:00,
2013-03-04 13:52:00,66.0,34.0,30.16,East,80,1.0,11.0,31,0.00,,,0.00,,2013-03-04 18:52:00,
2013-03-04 14:02:00,66.0,33.0,30.16,ENE,65,2.0,7.0,29,0.00,,,0.00,,2013-03-04 19:02:00,
2013-03-04 14:12:00,66.0,33.0,30.16,ENE,65,2.0,7.0,29,0.00,,,0.00,,2013-03-04 19:12:00,
2013-03-04 14:22:00,66.0,38.0,30.16,East,99,1.0,7.0,36,0.00,,,0.00,,2013-03-04 19:22:00,
2013-03-04 14:32:00,66.0,38.0,30.16,East,99,1.0,7.0,36,0.00,,,0.00,,2013-03-04 19:32:00,
2013-03-04 14:42:00,66.0,38.0,30.16,East,99,1.0,7.0,36,0.00,,,0.00,,2013-03-04 19:42:00,
2013-03-04 14:52:00,67.0,36.0,30.15,NE,53,3.0,8.0,32,0.00,,,0.00,,2013-03-04 19:52:00,
2013-03-04 15:02:00,68.0,39.0,30.15,NNE,32,5.0,10.0,35,0.00,,,0.00,,2013-03-04 20:02:00,
2013-03-04 15:12:00,68.0,39.0,30.15,NNE,32,5.0,10.0,35,0.00,,,0.00,,2013-03-04 20:12:00,
2013-03-04 15:22:00,67.0,39.0,30.15,NE,49,4.0,10.0,36,0.00,,,0.00,,2013-03-04 20:22:00,
2013-03-04 15:32:00,67.0,40.0,30.15,NE,46,3.0,8.0,37,0.00,,,0.00,,2013-03-04 20:32:00,
2013-03-04 15:42:00,67.0,40.0,30.15,NE,46,3.0,8.0,37,0.00,,,0.00,,2013-03-04 20:42:00,
2013-03-04 15:53:00,67.0,40.0,30.15,NE,46,5.0,11.0,37,0.00,,,0.00,,2013-03-04 20:53:00,
2013-03-04 16:02:00,67.0,41.0,30.15,NNE,15,3.0,7.0,38,0.00,,,0.00,,2013-03-04 21:02:00,
2013-03-04 16:12:00,67.0,41.0,30.15,NNE,15,3.0,7.0,38,0.00,,,0.00,,2013-03-04 21:12:00,
2013-03-04 16:22:00,66.0,39.0,30.15,ENE,78,5.0,11.0,37,0.00,,,0.00,,2013-03-04 21:22:00,
2013-03-04 16:32:00,66.0,41.0,30.15,NE,53,2.0,7.0,40,0.00,,,0.00,,2013-03-04 21:32:00,
2013-03-04 16:42:00,66.0,41.0,30.15,NE,53,2.0,7.0,40,0.00,,,0.00,,2013-03-04 21:42:00,
2013-03-04 16:53:00,66.0,40.0,30.15,NNE,17,4.0,8.0,39,0.00,,,0.00,,2013-03-04 21:53:00,
2013-03-04 17:02:00,66.0,40.0,30.15,NE,44,4.0,9.0,39,0.00,,,0.00,,2013-03-04 22:02:00,
2013-03-04 17:12:00,66.0,40.0,30.15,NE,44,4.0,9.0,39,0.00,,,0.00,,2013-03-04 22:12:00,
2013-03-04 17:22:00,64.0,40.0,30.15,ENE,61,4.0,9.0,41,0.00,,,0.00,,2013-03-04 22:22:00,
2013-03-04 17:32:00,64.0,40.0,30.16,NE,40,3.0,9.0,42,0.00,,,0.00,,2013-03-04 22:32:00,
2013-03-04 17:42:00,64.0,40.0,30.16,NE,40,3.0,9.0,42,0.00,,,0.00,,2013-03-04 22:42:00,
2013-03-04 17:52:00,63.0,38.0,30.16,NE,34,5.0,9.0,40,0.00,,,0.00,,2013-03-04 22:52:00,
2013-03-04 18:02:00,62.0,40.0,30.16,ENE,67,2.0,10.0,44,0.00,,,0.00,,2013-03-04 23:02:00,
2013-03-04 18:11:00,62.0,40.0,30.16,ENE,67,2.0,10.0,44,0.00,,,0.00,,2013-03-04 23:11:00,
2013-03-04 18:22:00,61.0,40.0,30.17,NNE,24,2.0,8.0,45,0.00,,,0.00,,2013-03-04 23:22:00,
2013-03-04 18:32:00,60.0,41.0,30.16,NE,34,3.0,6.0,49,0.00,,,0.00,,2013-03-04 23:32:00,
2013-03-04 18:42:00,60.0,41.0,30.16,NE,34,3.0,6.0,49,0.00,,,0.00,,2013-03-04 23:42:00,
2013-03-04 18:52:00,59.0,41.0,30.16,NE,40,3.0,6.0,51,0.00,,,0.00,,2013-03-04 23:52:00,
2013-03-04 19:02:00,58.0,42.0,30.17,NNE,30,2.0,5.0,55,0.00,,,0.00,,2013-03-05 00:02:00,
2013-03-04 19:12:00,58.0,42.0,30.17,NNE,30,2.0,5.0,55,0.00,,,0.00,,2013-03-05 00:12:00,
2013-03-04 19:22:00,57.0,43.0,30.17,NE,38,0.0,4.0,59,0.00,,,0.00,,2013-03-05 00:22:00,
2013-03-04 19:32:00,57.0,45.0,30.16,NE,39,0.0,2.0,63,0.00,,,0.00,,2013-03-05 00:32:00,
2013-03-04 19:42:00,57.0,45.0,30.16,NE,39,0.0,2.0,63,0.00,,,0.00,,2013-03-05 00:42:00,
2013-03-04 19:52:00,56.0,45.0,30.17,NNE,31,1.0,5.0,67,0.00,,,0.00,,2013-03-05 00:52:00,
2013-03-04 20:02:00,56.0,45.0,30.17,NNE,31,1.0,5.0,67,0.00,,,0.00,,2013-03-05 01:02:00,
2013-03-04 20:12:00,56.0,45.0,30.17,NNE,31,1.0,5.0,67,0.00,,,0.00,,2013-03-05 01:12:00,
2013-03-04 20:22:00,55.0,47.0,30.18,NNE,31,0.0,1.0,73,0.00,,,0.00,,2013-03-05 01:22:00,
2013-03-04 20:32:00,54.0,47.0,30.19,NNE,31,0.0,1.0,77,0.00,,,0.00,,2013-03-05 01:32:00,
2013-03-04 20:42:00,54.0,47.0,30.19,NNE,31,0.0,1.0,77,0.00,,,0.00,,2013-03-05 01:42:00,
2013-03-04 20:52:00,53.0,47.0,30.19,NNE,31,0.0,0.0,79,0.00,,,0.00,,2013-03-05 01:52:00,
2013-03-04 21:01:00,52.0,46.0,30.19,NNE,31,0.0,0.0,81,0.00,,,0.00,,2013-03-05 02:01:00,
2013-03-04 21:11:00,52.0,46.0,30.19,NNE,31,0.0,0.0,81,0.00,,,0.00,,2013-03-05 02:11:00,
2013-03-04 21:22:00,51.0,46.0,30.19,NNE,31,0.0,0.0,83,0.00,,,0.00,,2013-03-05 02:22:00,
2013-03-04 21:32:00,50.0,46.0,30.19,NNE,31,0.0,0.0,85,0.00,,,0.00,,2013-03-05 02:32:00,
2013-03-04 21:42:00,50.0,46.0,30.19,NNE,31,0.0,0.0,85,0.00,,,0.00,,2013-03-05 02:42:00,
2013-03-04 21:53:00,50.0,47.0,30.20,NNE,31,0.0,1.0,88,0.00,,,0.00,,2013-03-05 02:53:00,
2013-03-04 22:02:00,49.0,46.0,30.20,NNE,31,0.0,1.0,89,0.00,,,0.00,,2013-03-05 03:02:00,
2013-03-04 22:12:00,49.0,46.0,30.20,NNE,31,0.0,1.0,89,0.00,,,0.00,,2013-03-05 03:12:00,
2013-03-04 22:22:00,49.0,46.0,30.19,NNE,31,0.0,1.0,90,0.00,,,0.00,,2013-03-05 03:22:00,
2013-03-04 22:32:00,48.0,46.0,30.19,NNE,31,0.0,1.0,92,0.00,,,0.00,,2013-03-05 03:32:00,
2013-03-04 22:42:00,48.0,46.0,30.19,NNE,31,0.0,1.0,92,0.00,,,0.00,,2013-03-05 03:42:00,
2013-03-04 22:52:00,48.0,46.0,30.20,NNE,31,0.0,1.0,92,0.00,,,0.00,,2013-03-05 03:52:00,
2013-03-04 23:02:00,48.0,46.0,30.20,NNE,31,0.0,0.0,93,0.00,,,0.00,,2013-03-05 04:02:00,
2013-03-04 23:12:00,48.0,46.0,30.20,NNE,31,0.0,0.0,93,0.00,,,0.00,,2013-03-05 04:12:00,
2013-03-04 23:22:00,47.0,45.0,30.19,NNE,31,0.0,0.0,94,0.00,,,0.00,,2013-03-05 04:22:00,
2013-03-04 23:32:00,47.0,45.0,30.19,NNE,31,0.0,0.0,94,0.00,,,0.00,,2013-03-05 04:32:00,
2013-03-04 23:42:00,47.0,45.0,30.19,NNE,31,0.0,0.0,94,0.00,,,0.00,,2013-03-05 04:42:00,
2013-03-04 23:52:00,47.0,45.0,30.19,NNE,31,0.0,0.0,94,0.00,,,0.00,,2013-03-05 04:52:00,